Latest Weather Observations for Witchcliffe

IDW60801

Issued at 11:32 am WST Thursday 30 July 2015 (issued every 30 minutes, with the page automatically refreshed every 10 minutes)

About weather observations | Map of weather stations | Latest weather observations for WA | Other Formats
Station Details ID: 009746 Name: WITCHCLIFFE Lat: -34.03 Lon: 115.10 Height: 80.0 m
Data from the previous 72 hours. | See also: Recent months at Witchcliffe
Date/Time
WST
Temp
°C
App
Temp
°C
Dew
Point
Rel
Hum
%
Delta-T
°C
Wind Press
QNH
hPa
Press
MSL
hPa
Rain
since 9 am
mm
Dir
 
Spd
km/h
Gust
km/h
Spd
kts
Gust
kts
30/11:30am 15.1 15.4 15.1 100 0.0 SE 7 13 4 7 1020.2 1020.2 0.0
30/11:00am 13.8 13.3 13.8 100 0.0 E 9 15 5 8 1020.3 1020.3 0.0
30/10:30am 13.2 12.5 13.2 100 0.0 ESE 9 13 5 7 1020.5 1020.5 0.0
30/10:00am 12.7 12.2 12.7 100 0.0 ESE 7 11 4 6 1020.9 1020.9 0.0
30/09:30am 12.1 11.0 12.1 100 0.0 SE 9 13 5 7 1020.9 1020.9 0.0
30/09:00am 11.7 10.9 11.7 100 0.0 SE 7 11 4 6 1021.1 1021.1 0.2
30/08:30am 11.4 10.1 11.4 100 0.0 SE 9 13 5 7 1020.6 1020.6 0.2
30/08:00am 10.9 9.9 10.9 100 0.0 SE 7 11 4 6 1020.5 1020.5 0.2
30/07:30am 10.8 9.7 10.8 100 0.0 SE 7 11 4 6 1020.4 1020.4 0.0
30/07:00am 11.0 10.0 11.0 100 0.0 ESE 7 9 4 5 1020.3 1020.3 0.0
30/06:30am 11.5 11.6 11.5 100 0.0 ESE 2 11 1 6 1020.2 1020.2 0.0
30/06:00am 11.8 11.0 11.8 100 0.0 E 7 13 4 7 1020.1 1020.1 0.0
30/05:30am 11.5 10.8 11.5 100 0.0 E 6 11 3 6 1019.6 1019.7 0.0
30/05:00am 11.6 10.8 11.6 100 0.0 ESE 7 13 4 7 1019.4 1019.5 0.0
30/04:30am 12.1 11.0 12.1 100 0.0 NE 9 17 5 9 1019.8 1019.9 0.0
30/04:00am 11.9 10.8 11.9 100 0.0 E 9 13 5 7 1019.8 1019.9 0.0
30/03:30am 11.7 10.9 11.7 100 0.0 SE 7 11 4 6 1019.7 1019.8 0.0
30/03:00am 11.2 10.8 11.2 100 0.0 SE 4 9 2 5 1019.9 1020.0 0.0
30/02:30am 11.6 10.8 11.6 100 0.0 SE 7 11 4 6 1020.1 1020.1 0.0
30/02:00am 11.9 12.5 11.9 100 0.0 CALM 0 0 0 0 1020.3 1020.3 0.0
30/01:30am 12.2 12.9 12.2 100 0.0 CALM 0 6 0 3 1020.3 1020.3 0.0
30/01:00am 12.4 13.2 12.4 100 0.0 CALM 0 6 0 3 1020.3 1020.3 0.0
30/12:30am 12.2 11.7 12.2 100 0.0 ESE 6 11 3 6 1020.3 1020.3 0.0
30/12:00am 11.1 11.0 10.9 99 0.1 ESE 2 7 1 4 1020.2 1020.2 0.0
 
Date/Time
WST
Temp
°C
App
Temp
°C
Dew
Point
Rel
Hum
%
Delta-T
°C
Wind Press
QNH
hPa
Press
MSL
hPa
Rain
since 9 am
mm
Dir
 
Spd
km/h
Gust
km/h
Spd
kts
Gust
kts
29/11:30pm 11.1 10.3 10.9 99 0.1 SE 6 9 3 5 1020.1 1020.1 0.0
29/11:00pm 11.6 10.7 11.4 99 0.1 SSE 7 11 4 6 1019.9 1020.0 0.0
29/10:30pm 11.4 11.8 11.2 99 0.1 CALM 0 0 0 0 1019.9 1020.0 0.0
29/10:00pm 10.8 11.0 10.6 99 0.1 CALM 0 0 0 0 1019.9 1020.0 0.0
29/09:30pm 11.0 11.3 10.8 99 0.1 CALM 0 0 0 0 1019.9 1020.0 0.0
29/09:00pm 11.6 12.0 11.4 99 0.1 CALM 0 0 0 0 1019.7 1019.8 0.0
29/08:30pm 11.6 12.0 11.4 99 0.1 CALM 0 0 0 0 1019.5 1019.6 0.0
29/08:00pm 12.0 12.6 11.8 99 0.1 CALM 0 0 0 0 1019.4 1019.5 0.0
29/07:30pm 11.8 11.5 11.3 97 0.3 N 4 9 2 5 1019.0 1019.1 0.0
29/07:00pm 13.7 14.5 12.6 93 0.6 CALM 0 0 0 0 1018.7 1018.8 0.0
29/06:30pm 14.4 14.8 12.6 89 1.0 WNW 2 7 1 4 1018.1 1018.2 0.0
29/06:00pm 15.0 14.1 12.7 86 1.3 NNW 9 11 5 6 1018.0 1018.1 0.0
29/05:30pm 16.2 15.4 12.9 81 1.8 NW 9 11 5 6 1017.5 1017.6 0.0
29/05:00pm 17.5 16.9 13.4 77 2.3 NW 9 15 5 8 1017.5 1017.6 0.0
29/04:30pm 18.0 16.3 13.7 76 2.5 NNW 15 22 8 12 1017.4 1017.5 0.0
29/04:00pm 18.3 16.1 13.2 72 2.9 NW 17 26 9 14 1017.3 1017.4 0.0
29/03:30pm 18.1 16.6 13.2 73 2.8 NW 13 22 7 12 1016.9 1017.0 0.0
29/03:00pm 18.1 17.1 13.4 74 2.7 NW 11 19 6 10 1016.6 1016.7 0.0
29/02:30pm 18.0 16.2 13.3 74 2.7 NW 15 22 8 12 1016.4 1016.5 0.0
29/02:00pm 17.7 16.1 14.0 79 2.1 NNW 15 22 8 12 1016.4 1016.5 0.0
29/01:30pm 17.7 16.5 14.0 79 2.1 NW 13 22 7 12 1016.5 1016.6 0.0
29/01:00pm 17.4 15.5 14.1 81 1.9 NNW 17 24 9 13 1016.6 1016.7 0.0
29/12:30pm 17.0 16.2 16.2 95 0.5 NNW 15 20 8 11 1017.0 1017.1 0.0
29/12:00pm 16.8 17.0 16.8 100 0.0 NNW 11 17 6 9 1017.2 1017.3 0.0
29/11:30am 16.0 15.5 16.0 100 0.0 N 13 20 7 11 1017.4 1017.5 0.0
29/11:00am 14.9 14.4 14.9 100 0.0 N 11 17 6 9 1017.9 1018.0 0.0
29/10:30am 14.7 13.4 14.7 100 0.0 N 15 19 8 10 1017.9 1018.0 0.0
29/10:00am 14.3 13.2 14.3 100 0.0 N 13 17 7 9 1017.8 1017.9 0.0
29/09:30am 13.9 13.4 13.9 100 0.0 N 9 15 5 8 1017.9 1018.0 0.0
29/09:00am 13.0 11.9 13.0 100 0.0 N 11 13 6 7 1017.9 1018.0 0.4
29/08:30am 12.3 11.7 12.3 100 0.0 NNE 7 11 4 6 1017.7 1017.8 0.4
29/08:00am 11.4 10.1 11.4 100 0.0 N 9 9 5 5 1017.5 1017.6 0.4
29/07:30am 10.4 9.2 10.4 100 0.0 N 7 9 4 5 1017.0 1017.1 0.4
29/07:00am 10.0 10.1 10.0 100 0.0 CALM 0 0 0 0 1016.7 1016.8 0.4
29/06:30am 9.3 9.2 9.3 100 0.0 CALM 0 0 0 0 1016.9 1017.0 0.2
29/06:00am 9.5 9.4 9.5 100 0.0 CALM 0 0 0 0 1016.7 1016.8 0.2
29/05:30am 9.1 8.9 9.1 100 0.0 CALM 0 0 0 0 1016.6 1016.7 0.2
29/05:00am 8.7 8.4 8.7 100 0.0 CALM 0 0 0 0 1016.4 1016.5 0.2
29/04:30am 9.1 8.9 9.1 100 0.0 CALM 0 0 0 0 1016.4 1016.5 0.2
29/04:00am 9.5 7.7 9.5 100 0.0 N 9 11 5 6 1016.4 1016.5 0.2
29/03:30am 10.1 9.0 10.1 100 0.0 N 6 7 3 4 1016.4 1016.5 0.2
29/03:00am 10.5 9.4 10.5 100 0.0 N 7 9 4 5 1016.6 1016.7 0.2
29/02:30am 10.6 9.1 10.6 100 0.0 N 9 11 5 6 1016.5 1016.6 0.2
29/02:00am 10.9 9.5 10.9 100 0.0 N 9 13 5 7 1016.7 1016.8 0.2
29/01:30am 10.9 9.5 10.9 100 0.0 N 9 13 5 7 1016.6 1016.7 0.2
29/01:00am 11.0 9.6 11.0 100 0.0 N 9 11 5 6 1016.7 1016.8 0.2
29/12:30am 10.9 9.4 10.7 99 0.1 N 9 11 5 6 1016.6 1016.7 0.0
29/12:00am 10.6 9.1 10.4 99 0.1 N 9 11 5 6 1016.6 1016.7 0.0
 
Date/Time
WST
Temp
°C
App
Temp
°C
Dew
Point
Rel
Hum
%
Delta-T
°C
Wind Press
QNH
hPa
Press
MSL
hPa
Rain
since 9 am
mm
Dir
 
Spd
km/h
Gust
km/h
Spd
kts
Gust
kts
28/11:30pm 8.9 8.6 8.8 99 0.0 CALM 0 0 0 0 1016.6 1016.7 0.0
28/11:00pm 9.6 9.5 9.5 99 0.0 CALM 0 0 0 0 1016.8 1016.9 0.0
28/10:30pm 9.6 9.5 9.5 99 0.0 CALM 0 0 0 0 1016.6 1016.7 0.0
28/10:00pm 9.2 9.0 9.1 99 0.0 CALM 0 0 0 0 1016.6 1016.7 0.0
28/09:30pm 10.4 10.5 10.2 99 0.1 CALM 0 0 0 0 1016.8 1016.9 0.0
28/09:00pm 11.0 10.1 10.8 99 0.1 N 6 7 3 4 1016.6 1016.7 0.0
28/08:30pm 11.0 9.6 10.8 99 0.1 N 9 11 5 6 1016.6 1016.7 0.0
28/08:00pm 11.4 11.7 10.9 97 0.3 CALM 0 0 0 0 1016.6 1016.7 0.0
28/07:30pm 12.0 12.5 11.5 97 0.3 CALM 0 0 0 0 1016.4 1016.5 0.0
28/07:00pm 12.5 12.0 11.9 96 0.3 NNE 6 9 3 5 1016.2 1016.2 0.0
28/06:30pm 12.7 12.9 11.9 95 0.4 NNE 2 7 1 4 1015.9 1015.9 0.0
28/06:00pm 12.9 12.8 12.0 94 0.5 ENE 4 9 2 5 1015.6 1015.6 0.0
28/05:30pm 13.0 13.5 11.7 92 0.7 CALM 0 0 0 0 1015.4 1015.4 0.0
28/05:00pm 12.9 12.2 11.5 91 0.7 NNE 6 9 3 5 1015.2 1015.2 0.0
28/04:30pm 13.0 12.0 10.9 87 1.1 NNE 7 11 4 6 1014.9 1014.9 0.0
28/04:00pm 13.6 12.2 10.9 84 1.4 NNE 9 13 5 7 1014.9 1014.9 0.0
28/03:30pm 14.2 12.9 11.2 82 1.6 NE 9 15 5 8 1014.9 1014.9 0.0
28/03:00pm 14.3 12.9 10.9 80 1.8 NNE 9 13 5 7 1015.0 1015.0 0.0
28/02:30pm 14.6 11.5 10.4 76 2.2 NNE 17 22 9 12 1014.9 1014.9 0.0
28/02:00pm 15.4 13.2 10.8 74 2.4 NNE 13 26 7 14 1015.1 1015.1 0.0
28/01:30pm 14.5 11.2 9.5 72 2.6 NNE 17 22 9 12 1015.5 1015.5 0.0
28/01:00pm 15.1 11.8 9.7 70 2.8 NNE 17 24 9 13 1015.9 1015.9 0.0
28/12:30pm 14.3 11.1 8.3 67 3.0 NNE 15 22 8 12 1016.6 1016.7 0.0
28/12:00pm 14.7 10.2 8.4 66 3.2 NNE 22 32 12 17 1017.1 1017.2 0.0
28/11:30am 15.8 13.2 9.2 65 3.4 N 13 22 7 12 1017.4 1017.5 0.0
28/11:00am 14.4 11.8 9.2 71 2.7 NNE 13 24 7 13 1017.6 1017.7 0.0
28/10:30am 13.4 10.8 9.3 76 2.1 NNE 13 20 7 11 1018.2 1018.3 0.0
28/10:00am 13.1 11.8 10.1 82 1.5 NNE 7 15 4 8 1018.5 1018.6 0.0
28/09:30am 12.5 11.2 10.0 85 1.3 NNE 7 13 4 7 1018.9 1019.0 0.0
28/09:00am 12.0 11.3 9.9 87 1.1 NNE 4 9 2 5 1019.3 1019.4 1.4
28/08:30am 11.8 11.4 9.9 88 1.0 NE 2 13 1 7 1019.4 1019.5 1.4
28/08:00am 11.8 10.1 9.7 87 1.1 ENE 9 13 5 7 1019.5 1019.6 1.4
28/07:30am 12.2 10.1 9.9 86 1.2 NNE 11 15 6 8 1019.6 1019.7 1.4
28/07:00am 12.0 9.3 10.2 89 0.9 NNE 15 22 8 12 1019.7 1019.8 1.4
28/06:30am 12.0 9.8 10.9 93 0.6 NNE 13 20 7 11 1019.9 1020.0 1.2
28/06:00am 12.0 10.3 11.2 95 0.4 NNE 11 19 6 10 1020.2 1020.2 1.2
28/05:30am 12.0 10.5 10.7 92 0.7 NNE 9 19 5 10 1020.4 1020.4 0.8
28/05:00am 12.1 9.8 10.3 89 0.9 NNE 13 19 7 10 1020.5 1020.5 0.6
28/04:30am 12.1 9.2 9.8 86 1.2 N 15 20 8 11 1020.8 1020.8 0.6
28/04:00am 12.4 8.5 9.4 82 1.5 N 20 28 11 15 1020.7 1020.7 0.2
28/03:39am 12.4 8.4 9.2 81 1.6 N 20 35 11 19 1020.6 1020.6 0.0
28/03:30am 10.1 8.5 8.7 91 0.7 NE 7 11 4 6 1020.5 1020.5 0.0
28/03:00am 9.4 9.0 8.2 92 0.6 CALM 0 0 0 0 1021.0 1021.0 0.0
28/02:30am 9.4 8.9 8.0 91 0.7 CALM 0 0 0 0 1021.1 1021.1 0.0
28/02:00am 9.3 8.8 7.7 90 0.8 CALM 0 0 0 0 1021.5 1021.5 0.0
28/01:30am 9.8 9.4 8.1 89 0.8 CALM 0 0 0 0 1022.2 1022.2 0.0
28/01:00am 9.7 8.8 7.8 88 0.9 SE 2 7 1 4 1022.3 1022.3 0.0
28/12:30am 9.8 9.3 7.9 88 0.9 CALM 0 0 0 0 1022.7 1022.7 0.0
28/12:00am 9.1 8.5 7.2 88 0.9 CALM 0 0 0 0 1022.9 1022.9 0.0
 
Date/Time
WST
Temp
°C
App
Temp
°C
Dew
Point
Rel
Hum
%
Delta-T
°C
Wind Press
QNH
hPa
Press
MSL
hPa
Rain
since 9 am
mm
Dir
 
Spd
km/h
Gust
km/h
Spd
kts
Gust
kts
27/11:30pm 9.2 8.5 7.0 86 1.0 CALM 0 0 0 0 1023.5 1023.5 0.0
27/11:00pm 9.6 8.9 7.0 84 1.2 CALM 0 0 0 0 1023.7 1023.7 0.0
27/10:30pm 9.6 8.8 6.7 82 1.4 CALM 0 0 0 0 1024.1 1024.1 0.0
27/10:00pm 10.0 9.2 6.7 80 1.5 CALM 0 0 0 0 1024.2 1024.2 0.0
27/09:30pm 10.0 9.2 6.5 79 1.6 CALM 0 0 0 0 1024.3 1024.3 0.0
27/09:00pm 10.4 9.6 6.4 76 1.9 CALM 0 0 0 0 1024.1 1024.1 0.0
27/08:30pm 11.5 10.6 6.2 70 2.5 CALM 0 0 0 0 1024.1 1024.1 0.0
27/08:00pm 12.4 10.8 6.5 67 2.8 NNE 4 7 2 4 1024.5 1024.5 0.0
27/07:30pm 11.9 10.9 7.4 74 2.2 NE 2 7 1 4 1024.6 1024.6 0.0
27/07:00pm 11.1 10.4 7.0 76 1.9 CALM 0 0 0 0 1024.9 1024.9 0.0
27/06:30pm 11.4 10.0 7.3 76 2.0 NE 4 7 2 4 1025.4 1025.4 0.0
27/06:00pm 12.1 11.5 7.2 72 2.4 CALM 0 0 0 0 1025.7 1025.7 0.0
27/05:30pm 13.0 12.4 7.5 69 2.7 CALM 0 0 0 0 1025.5 1025.5 0.0
27/05:00pm 14.1 12.7 7.2 63 3.4 NE 4 9 2 5 1025.4 1025.4 0.0
27/04:30pm 14.1 12.0 8.1 67 3.0 NNE 9 11 5 6 1025.3 1025.3 0.0
27/04:00pm 15.2 12.5 7.2 59 3.9 NNE 11 15 6 8 1024.9 1024.9 0.0
27/03:30pm 15.9 12.7 6.9 55 4.4 NNE 13 19 7 10 1025.0 1025.0 0.0
27/03:00pm 16.4 14.2 7.9 57 4.3 NE 9 15 5 8 1025.2 1025.2 0.0
27/02:30pm 17.2 15.1 8.4 56 4.5 NE 9 13 5 7 1025.5 1025.5 0.0
27/02:00pm 17.1 15.3 8.0 55 4.6 ENE 7 13 4 7 1025.9 1025.9 0.0
27/01:30pm 17.0 14.9 8.4 57 4.4 NNE 9 17 5 9 1026.4 1026.4 0.0
27/01:00pm 16.8 14.1 8.8 59 4.1 N 13 20 7 11 1026.9 1027.0 0.0
27/12:30pm 16.4 13.9 8.1 58 4.2 NNE 11 17 6 9 1027.3 1027.4 0.0
27/12:00pm 16.0 13.0 7.7 58 4.1 ENE 13 19 7 10 1027.8 1027.9 0.0

Other Formats:

Comma delimited format used in spreadsheet applications
http://www.bom.gov.au/fwo/IDW60801/IDW60801.95641.axf

JavaScript Object Notation format (JSON) in row-major order
http://www.bom.gov.au/fwo/IDW60801/IDW60801.95641.json